sensor_id;sensor_type;location;lat;lon;timestamp;noise_LAeq;noise_LA_min;noise_LA_max;noise_LA01;noise_LA95
66460;Laerm;58055;52.456;4.738;2023-09-12T00:00:02;52.60;47.83;57.29;;
66460;Laerm;58055;52.456;4.738;2023-09-12T00:00:15;53.54;47.49;63.88;;
66460;Laerm;58055;52.456;4.738;2023-09-12T00:00:25;57.88;50.50;64.61;;
66460;Laerm;58055;52.456;4.738;2023-09-12T00:00:35;57.95;48.49;64.98;;
66460;Laerm;58055;52.456;4.738;2023-09-12T00:00:46;52.83;46.98;64.11;;
66460;Laerm;58055;52.456;4.738;2023-09-12T00:00:56;53.16;47.45;61.10;;
66460;Laerm;58055;52.456;4.738;2023-09-12T00:01:06;51.71;47.10;65.01;;
66460;Laerm;58055;52.456;4.738;2023-09-12T00:01:17;54.14;47.40;63.98;;
66460;Laerm;58055;52.456;4.738;2023-09-12T00:01:27;49.87;47.04;56.17;;
66460;Laerm;58055;52.456;4.738;2023-09-12T00:01:38;55.82;46.67;66.87;;
66460;Laerm;58055;52.456;4.738;2023-09-12T00:01:48;53.76;47.35;63.10;;
66460;Laerm;58055;52.456;4.738;2023-09-12T00:01:58;53.15;46.88;60.85;;
66460;Laerm;58055;52.456;4.738;2023-09-12T00:02:08;52.23;46.70;60.55;;
66460;Laerm;58055;52.456;4.738;2023-09-12T00:02:19;58.65;49.89;62.89;;
66460;Laerm;58055;52.456;4.738;2023-09-12T00:02:30;57.58;47.95;61.81;;
66460;Laerm;58055;52.456;4.738;2023-09-12T00:02:40;55.75;48.45;61.16;;
66460;Laerm;58055;52.456;4.738;2023-09-12T00:02:50;56.55;48.46;62.36;;
66460;Laerm;58055;52.456;4.738;2023-09-12T00:03:00;50.06;47.37;57.24;;
66460;Laerm;58055;52.456;4.738;2023-09-12T00:03:11;50.79;48.22;58.27;;
66460;Laerm;58055;52.456;4.738;2023-09-12T00:03:22;49.82;47.04;54.18;;
66460;Laerm;58055;52.456;4.738;2023-09-12T00:03:32;51.04;48.04;53.15;;
66460;Laerm;58055;52.456;4.738;2023-09-12T00:03:44;51.28;48.26;54.04;;
66460;Laerm;58055;52.456;4.738;2023-09-12T00:03:54;53.19;49.17;60.09;;
66460;Laerm;58055;52.456;4.738;2023-09-12T00:04:04;51.95;48.25;62.76;;
66460;Laerm;58055;52.456;4.738;2023-09-12T00:04:15;50.61;48.24;56.61;;
66460;Laerm;58055;52.456;4.738;2023-09-12T00:04:27;49.32;47.60;53.62;;
66460;Laerm;58055;52.456;4.738;2023-09-12T00:04:38;51.24;47.85;58.77;;
66460;Laerm;58055;52.456;4.738;2023-09-12T00:04:48;54.47;48.76;58.46;;
66460;Laerm;58055;52.456;4.738;2023-09-12T00:05:00;55.48;48.52;62.73;;
66460;Laerm;58055;52.456;4.738;2023-09-12T00:05:11;53.43;47.23;57.60;;
66460;Laerm;58055;52.456;4.738;2023-09-12T00:05:21;53.24;49.07;57.27;;
66460;Laerm;58055;52.456;4.738;2023-09-12T00:05:31;53.45;49.31;56.36;;
66460;Laerm;58055;52.456;4.738;2023-09-12T00:05:42;53.36;49.71;56.21;;
66460;Laerm;58055;52.456;4.738;2023-09-12T00:06:00;50.98;47.10;58.25;;
66460;Laerm;58055;52.456;4.738;2023-09-12T00:06:10;52.13;46.99;64.17;;
66460;Laerm;58055;52.456;4.738;2023-09-12T00:06:21;51.00;47.31;58.32;;
66460;Laerm;58055;52.456;4.738;2023-09-12T00:06:31;51.07;48.64;56.47;;
66460;Laerm;58055;52.456;4.738;2023-09-12T00:06:41;52.30;47.89;56.80;;
66460;Laerm;58055;52.456;4.738;2023-09-12T00:06:52;53.28;49.30;58.88;;
66460;Laerm;58055;52.456;4.738;2023-09-12T00:07:02;53.34;48.97;56.95;;
66460;Laerm;58055;52.456;4.738;2023-09-12T00:07:12;54.54;50.60;59.99;;
66460;Laerm;58055;52.456;4.738;2023-09-12T00:07:22;54.45;49.16;59.01;;
66460;Laerm;58055;52.456;4.738;2023-09-12T00:07:33;56.42;50.47;62.57;;
66460;Laerm;58055;52.456;4.738;2023-09-12T00:07:43;60.22;55.36;66.42;;
66460;Laerm;58055;52.456;4.738;2023-09-12T00:07:53;58.46;54.63;62.27;;
66460;Laerm;58055;52.456;4.738;2023-09-12T00:08:04;58.92;49.00;63.37;;
66460;Laerm;58055;52.456;4.738;2023-09-12T00:08:14;55.98;47.95;63.39;;
66460;Laerm;58055;52.456;4.738;2023-09-12T00:08:24;52.86;47.40;64.19;;
66460;Laerm;58055;52.456;4.738;2023-09-12T00:08:35;50.78;47.70;58.05;;
66460;Laerm;58055;52.456;4.738;2023-09-12T00:08:45;49.45;46.71;56.57;;
66460;Laerm;58055;52.456;4.738;2023-09-12T00:08:56;58.86;47.57;67.51;;
66460;Laerm;58055;52.456;4.738;2023-09-12T00:09:06;54.98;47.33;63.50;;
66460;Laerm;58055;52.456;4.738;2023-09-12T00:09:16;55.59;48.60;63.37;;
66460;Laerm;58055;52.456;4.738;2023-09-12T00:09:26;54.37;48.08;63.81;;
66460;Laerm;58055;52.456;4.738;2023-09-12T00:09:37;53.21;47.82;62.45;;
66460;Laerm;58055;52.456;4.738;2023-09-12T00:09:48;51.19;48.13;57.79;;
66460;Laerm;58055;52.456;4.738;2023-09-12T00:09:58;51.80;48.32;59.43;;
66460;Laerm;58055;52.456;4.738;2023-09-12T00:10:08;56.10;47.14;63.93;;
66460;Laerm;58055;52.456;4.738;2023-09-12T00:10:19;57.18;50.32;68.25;;
66460;Laerm;58055;52.456;4.738;2023-09-12T00:10:29;54.60;50.87;60.77;;
66460;Laerm;58055;52.456;4.738;2023-09-12T00:10:40;53.98;49.36;61.56;;
66460;Laerm;58055;52.456;4.738;2023-09-12T00:11:10;51.02;47.43;58.15;;
66460;Laerm;58055;52.456;4.738;2023-09-12T00:11:21;52.94;48.10;59.65;;
66460;Laerm;58055;52.456;4.738;2023-09-12T00:11:35;53.25;47.52;63.64;;
66460;Laerm;58055;52.456;4.738;2023-09-12T00:11:45;56.95;47.83;69.20;;
66460;Laerm;58055;52.456;4.738;2023-09-12T00:11:55;56.32;48.41;66.98;;
66460;Laerm;58055;52.456;4.738;2023-09-12T00:12:06;60.03;47.61;68.06;;
66460;Laerm;58055;52.456;4.738;2023-09-12T00:12:16;56.22;50.02;62.61;;
66460;Laerm;58055;52.456;4.738;2023-09-12T00:12:27;57.29;48.60;62.76;;
66460;Laerm;58055;52.456;4.738;2023-09-12T00:12:37;55.19;50.37;58.91;;
66460;Laerm;58055;52.456;4.738;2023-09-12T00:12:48;52.80;47.22;59.95;;
66460;Laerm;58055;52.456;4.738;2023-09-12T00:12:59;52.29;47.00;63.19;;
66460;Laerm;58055;52.456;4.738;2023-09-12T00:13:10;53.61;47.61;63.27;;
66460;Laerm;58055;52.456;4.738;2023-09-12T00:13:21;51.29;47.89;58.31;;
66460;Laerm;58055;52.456;4.738;2023-09-12T00:13:31;53.36;48.22;60.80;;
66460;Laerm;58055;52.456;4.738;2023-09-12T00:13:41;55.55;48.66;64.93;;
66460;Laerm;58055;52.456;4.738;2023-09-12T00:13:52;56.16;48.24;65.24;;
66460;Laerm;58055;52.456;4.738;2023-09-12T00:14:02;53.90;47.86;59.24;;
66460;Laerm;58055;52.456;4.738;2023-09-12T00:14:16;53.97;47.91;59.21;;
66460;Laerm;58055;52.456;4.738;2023-09-12T00:14:26;54.37;48.65;61.86;;
66460;Laerm;58055;52.456;4.738;2023-09-12T00:14:37;50.43;46.98;55.55;;
66460;Laerm;58055;52.456;4.738;2023-09-12T00:14:47;49.83;47.15;55.19;;
66460;Laerm;58055;52.456;4.738;2023-09-12T00:14:57;51.25;47.44;60.08;;
66460;Laerm;58055;52.456;4.738;2023-09-12T00:15:08;51.99;47.37;67.03;;
66460;Laerm;58055;52.456;4.738;2023-09-12T00:15:18;50.51;46.99;56.33;;
66460;Laerm;58055;52.456;4.738;2023-09-12T00:15:29;54.80;48.19;64.30;;
66460;Laerm;58055;52.456;4.738;2023-09-12T00:15:40;50.00;47.85;54.30;;
66460;Laerm;58055;52.456;4.738;2023-09-12T00:15:50;51.34;47.62;57.59;;
66460;Laerm;58055;52.456;4.738;2023-09-12T00:16:00;50.52;47.33;56.60;;
66460;Laerm;58055;52.456;4.738;2023-09-12T00:16:11;50.71;47.28;56.53;;
66460;Laerm;58055;52.456;4.738;2023-09-12T00:16:21;51.75;47.46;57.59;;
66460;Laerm;58055;52.456;4.738;2023-09-12T00:16:31;51.17;47.22;59.04;;
66460;Laerm;58055;52.456;4.738;2023-09-12T00:16:42;54.08;46.99;60.42;;
66460;Laerm;58055;52.456;4.738;2023-09-12T00:16:52;56.06;48.37;61.68;;
66460;Laerm;58055;52.456;4.738;2023-09-12T00:17:05;52.47;46.90;60.55;;
66460;Laerm;58055;52.456;4.738;2023-09-12T00:17:15;51.56;48.27;58.61;;
66460;Laerm;58055;52.456;4.738;2023-09-12T00:17:26;53.84;47.91;62.84;;
66460;Laerm;58055;52.456;4.738;2023-09-12T00:17:37;60.65;50.18;66.91;;
66460;Laerm;58055;52.456;4.738;2023-09-12T00:17:47;52.53;47.88;62.83;;
66460;Laerm;58055;52.456;4.738;2023-09-12T00:17:59;51.40;47.45;60.00;;
66460;Laerm;58055;52.456;4.738;2023-09-12T00:18:09;53.72;47.77;66.58;;
66460;Laerm;58055;52.456;4.738;2023-09-12T00:18:19;51.10;47.69;58.29;;
66460;Laerm;58055;52.456;4.738;2023-09-12T00:18:30;50.85;47.75;60.68;;
66460;Laerm;58055;52.456;4.738;2023-09-12T00:18:40;50.40;47.27;55.82;;
66460;Laerm;58055;52.456;4.738;2023-09-12T00:18:51;51.73;47.30;63.63;;
66460;Laerm;58055;52.456;4.738;2023-09-12T00:19:02;52.62;47.27;60.64;;
66460;Laerm;58055;52.456;4.738;2023-09-12T00:19:12;51.61;47.24;60.81;;
66460;Laerm;58055;52.456;4.738;2023-09-12T00:19:22;52.65;46.95;64.73;;
66460;Laerm;58055;52.456;4.738;2023-09-12T00:19:33;54.32;47.78;60.45;;
66460;Laerm;58055;52.456;4.738;2023-09-12T00:19:43;54.28;48.07;60.74;;
66460;Laerm;58055;52.456;4.738;2023-09-12T00:19:53;51.95;47.43;58.17;;
66460;Laerm;58055;52.456;4.738;2023-09-12T00:20:04;49.71;46.78;54.68;;
66460;Laerm;58055;52.456;4.738;2023-09-12T00:20:16;50.11;47.16;53.46;;
66460;Laerm;58055;52.456;4.738;2023-09-12T00:20:26;49.93;47.06;53.55;;
66460;Laerm;58055;52.456;4.738;2023-09-12T00:20:37;48.81;47.11;51.95;;
66460;Laerm;58055;52.456;4.738;2023-09-12T00:20:47;48.52;46.65;51.85;;
66460;Laerm;58055;52.456;4.738;2023-09-12T00:20:57;49.54;47.29;54.56;;
66460;Laerm;58055;52.456;4.738;2023-09-12T00:21:10;50.07;47.01;54.55;;
66460;Laerm;58055;52.456;4.738;2023-09-12T00:21:20;49.97;47.38;54.23;;
66460;Laerm;58055;52.456;4.738;2023-09-12T00:21:31;49.45;46.81;52.79;;
66460;Laerm;58055;52.456;4.738;2023-09-12T00:21:41;49.07;46.81;54.16;;
66460;Laerm;58055;52.456;4.738;2023-09-12T00:21:51;49.57;47.43;54.46;;
66460;Laerm;58055;52.456;4.738;2023-09-12T00:22:03;50.66;47.41;58.51;;
66460;Laerm;58055;52.456;4.738;2023-09-12T00:22:13;50.73;47.56;56.89;;
66460;Laerm;58055;52.456;4.738;2023-09-12T00:22:24;52.42;48.25;56.24;;
66460;Laerm;58055;52.456;4.738;2023-09-12T00:22:34;52.35;49.02;62.40;;
66460;Laerm;58055;52.456;4.738;2023-09-12T00:22:45;49.17;46.70;56.87;;
66460;Laerm;58055;52.456;4.738;2023-09-12T00:22:55;52.30;47.25;56.20;;
66460;Laerm;58055;52.456;4.738;2023-09-12T00:23:06;52.27;47.53;57.03;;
66460;Laerm;58055;52.456;4.738;2023-09-12T00:23:16;51.01;47.51;55.35;;
66460;Laerm;58055;52.456;4.738;2023-09-12T00:23:26;49.97;46.83;55.15;;
66460;Laerm;58055;52.456;4.738;2023-09-12T00:23:37;50.62;46.85;54.22;;
66460;Laerm;58055;52.456;4.738;2023-09-12T00:23:47;52.84;48.73;57.71;;
66460;Laerm;58055;52.456;4.738;2023-09-12T00:23:58;55.62;47.89;65.15;;
66460;Laerm;58055;52.456;4.738;2023-09-12T00:24:08;61.33;52.91;65.41;;
66460;Laerm;58055;52.456;4.738;2023-09-12T00:24:19;59.18;49.33;64.53;;
66460;Laerm;58055;52.456;4.738;2023-09-12T00:24:29;53.39;47.77;60.40;;
66460;Laerm;58055;52.456;4.738;2023-09-12T00:24:39;50.61;47.78;56.11;;
66460;Laerm;58055;52.456;4.738;2023-09-12T00:24:49;53.41;47.87;60.35;;
66460;Laerm;58055;52.456;4.738;2023-09-12T00:25:00;52.13;47.35;58.24;;
66460;Laerm;58055;52.456;4.738;2023-09-12T00:25:10;49.16;47.03;54.21;;
66460;Laerm;58055;52.456;4.738;2023-09-12T00:25:20;49.05;46.64;54.65;;
66460;Laerm;58055;52.456;4.738;2023-09-12T00:25:31;51.03;47.03;58.71;;
66460;Laerm;58055;52.456;4.738;2023-09-12T00:25:41;51.12;47.89;55.39;;
66460;Laerm;58055;52.456;4.738;2023-09-12T00:25:51;52.24;47.40;57.91;;
66460;Laerm;58055;52.456;4.738;2023-09-12T00:26:02;54.06;48.65;68.79;;
66460;Laerm;58055;52.456;4.738;2023-09-12T00:26:12;51.54;46.96;58.42;;
66460;Laerm;58055;52.456;4.738;2023-09-12T00:26:22;53.01;47.38;64.68;;
66460;Laerm;58055;52.456;4.738;2023-09-12T00:26:33;51.50;48.47;56.63;;
66460;Laerm;58055;52.456;4.738;2023-09-12T00:26:43;54.61;49.49;58.39;;
66460;Laerm;58055;52.456;4.738;2023-09-12T00:26:53;53.78;49.81;57.72;;
66460;Laerm;58055;52.456;4.738;2023-09-12T00:27:04;53.42;49.09;55.83;;
66460;Laerm;58055;52.456;4.738;2023-09-12T00:27:14;51.06;48.91;53.66;;
66460;Laerm;58055;52.456;4.738;2023-09-12T00:27:25;53.73;48.98;57.37;;
66460;Laerm;58055;52.456;4.738;2023-09-12T00:27:35;55.06;50.26;58.01;;
66460;Laerm;58055;52.456;4.738;2023-09-12T00:27:45;54.12;48.54;62.76;;
66460;Laerm;58055;52.456;4.738;2023-09-12T00:27:55;57.10;48.59;63.51;;
66460;Laerm;58055;52.456;4.738;2023-09-12T00:28:06;51.15;46.91;56.75;;
66460;Laerm;58055;52.456;4.738;2023-09-12T00:28:16;49.67;47.71;53.92;;
66460;Laerm;58055;52.456;4.738;2023-09-12T00:28:26;49.60;47.09;52.68;;
66460;Laerm;58055;52.456;4.738;2023-09-12T00:28:37;51.69;48.66;55.77;;
66460;Laerm;58055;52.456;4.738;2023-09-12T00:28:48;50.92;47.06;60.73;;
66460;Laerm;58055;52.456;4.738;2023-09-12T00:28:59;48.94;47.00;53.04;;
66460;Laerm;58055;52.456;4.738;2023-09-12T00:29:09;50.32;47.35;55.14;;
66460;Laerm;58055;52.456;4.738;2023-09-12T00:29:19;50.90;47.49;56.16;;
66460;Laerm;58055;52.456;4.738;2023-09-12T00:29:29;50.23;47.46;53.96;;
66460;Laerm;58055;52.456;4.738;2023-09-12T00:29:40;50.16;47.53;54.24;;
66460;Laerm;58055;52.456;4.738;2023-09-12T00:29:50;50.76;47.63;54.22;;
66460;Laerm;58055;52.456;4.738;2023-09-12T00:30:00;51.03;47.52;55.01;;
66460;Laerm;58055;52.456;4.738;2023-09-12T00:30:11;50.62;47.19;54.50;;
66460;Laerm;58055;52.456;4.738;2023-09-12T00:30:21;49.65;46.84;52.56;;
66460;Laerm;58055;52.456;4.738;2023-09-12T00:30:31;49.17;46.90;55.83;;
66460;Laerm;58055;52.456;4.738;2023-09-12T00:30:41;48.32;47.01;49.86;;
66460;Laerm;58055;52.456;4.738;2023-09-12T00:30:52;50.19;46.67;57.34;;
66460;Laerm;58055;52.456;4.738;2023-09-12T00:31:02;51.87;47.25;57.98;;
66460;Laerm;58055;52.456;4.738;2023-09-12T00:31:12;50.13;47.36;53.27;;
66460;Laerm;58055;52.456;4.738;2023-09-12T00:31:23;51.08;47.06;61.64;;
66460;Laerm;58055;52.456;4.738;2023-09-12T00:31:33;49.30;46.86;58.09;;
66460;Laerm;58055;52.456;4.738;2023-09-12T00:31:43;49.81;47.54;55.90;;
66460;Laerm;58055;52.456;4.738;2023-09-12T00:31:53;52.25;47.63;58.00;;
66460;Laerm;58055;52.456;4.738;2023-09-12T00:32:04;52.71;48.22;57.11;;
66460;Laerm;58055;52.456;4.738;2023-09-12T00:32:14;54.06;49.77;58.12;;
66460;Laerm;58055;52.456;4.738;2023-09-12T00:32:24;51.55;47.48;55.90;;
66460;Laerm;58055;52.456;4.738;2023-09-12T00:32:35;49.74;46.84;53.96;;
66460;Laerm;58055;52.456;4.738;2023-09-12T00:32:45;52.58;48.68;56.45;;
66460;Laerm;58055;52.456;4.738;2023-09-12T00:32:56;54.23;48.17;59.06;;
66460;Laerm;58055;52.456;4.738;2023-09-12T00:33:06;56.02;48.97;60.46;;
66460;Laerm;58055;52.456;4.738;2023-09-12T00:33:16;53.27;49.15;58.93;;
66460;Laerm;58055;52.456;4.738;2023-09-12T00:33:26;52.01;48.17;58.26;;
66460;Laerm;58055;52.456;4.738;2023-09-12T00:33:37;49.27;46.91;55.40;;
66460;Laerm;58055;52.456;4.738;2023-09-12T00:33:47;48.91;46.66;55.93;;
66460;Laerm;58055;52.456;4.738;2023-09-12T00:33:57;49.56;47.21;56.01;;
66460;Laerm;58055;52.456;4.738;2023-09-12T00:34:07;51.18;47.91;57.23;;
66460;Laerm;58055;52.456;4.738;2023-09-12T00:34:18;50.70;47.59;53.58;;
66460;Laerm;58055;52.456;4.738;2023-09-12T00:34:28;51.23;48.13;55.75;;
66460;Laerm;58055;52.456;4.738;2023-09-12T00:34:38;50.43;47.05;58.36;;
66460;Laerm;58055;52.456;4.738;2023-09-12T00:34:48;49.79;47.30;57.36;;
66460;Laerm;58055;52.456;4.738;2023-09-12T00:34:59;53.57;47.83;65.23;;
66460;Laerm;58055;52.456;4.738;2023-09-12T00:35:09;54.38;49.21;59.79;;
66460;Laerm;58055;52.456;4.738;2023-09-12T00:35:19;52.25;47.58;58.66;;
66460;Laerm;58055;52.456;4.738;2023-09-12T00:35:29;52.81;47.32;62.49;;
66460;Laerm;58055;52.456;4.738;2023-09-12T00:35:40;49.56;47.20;54.77;;
66460;Laerm;58055;52.456;4.738;2023-09-12T00:35:50;52.76;46.99;62.17;;
66460;Laerm;58055;52.456;4.738;2023-09-12T00:36:00;55.37;48.21;65.32;;
66460;Laerm;58055;52.456;4.738;2023-09-12T00:36:10;56.32;48.56;61.99;;
66460;Laerm;58055;52.456;4.738;2023-09-12T00:36:21;50.96;46.96;57.73;;
66460;Laerm;58055;52.456;4.738;2023-09-12T00:36:31;48.76;46.93;57.64;;
66460;Laerm;58055;52.456;4.738;2023-09-12T00:36:43;48.82;46.85;53.14;;
66460;Laerm;58055;52.456;4.738;2023-09-12T00:36:53;49.68;46.98;54.62;;
66460;Laerm;58055;52.456;4.738;2023-09-12T00:37:04;48.66;46.69;52.41;;
66460;Laerm;58055;52.456;4.738;2023-09-12T00:37:14;48.88;46.70;54.04;;
66460;Laerm;58055;52.456;4.738;2023-09-12T00:37:24;48.68;46.60;53.04;;
66460;Laerm;58055;52.456;4.738;2023-09-12T00:37:35;50.09;46.58;56.55;;
66460;Laerm;58055;52.456;4.738;2023-09-12T00:37:45;52.88;47.49;58.39;;
66460;Laerm;58055;52.456;4.738;2023-09-12T00:37:56;53.11;47.67;58.51;;
66460;Laerm;58055;52.456;4.738;2023-09-12T00:38:08;50.57;46.96;55.12;;
66460;Laerm;58055;52.456;4.738;2023-09-12T00:38:18;50.42;47.04;54.59;;
66460;Laerm;58055;52.456;4.738;2023-09-12T00:38:29;50.78;47.06;56.33;;
66460;Laerm;58055;52.456;4.738;2023-09-12T00:38:39;50.24;47.31;55.71;;
66460;Laerm;58055;52.456;4.738;2023-09-12T00:38:49;52.53;47.82;58.75;;
66460;Laerm;58055;52.456;4.738;2023-09-12T00:39:00;51.59;47.93;57.00;;
66460;Laerm;58055;52.456;4.738;2023-09-12T00:39:10;50.41;46.69;54.92;;
66460;Laerm;58055;52.456;4.738;2023-09-12T00:39:20;50.69;47.84;53.76;;
66460;Laerm;58055;52.456;4.738;2023-09-12T00:39:30;50.36;47.13;56.42;;
66460;Laerm;58055;52.456;4.738;2023-09-12T00:39:41;50.13;47.11;60.55;;
66460;Laerm;58055;52.456;4.738;2023-09-12T00:39:51;50.11;47.10;54.05;;
66460;Laerm;58055;52.456;4.738;2023-09-12T00:40:01;48.77;46.64;53.88;;
66460;Laerm;58055;52.456;4.738;2023-09-12T00:40:12;51.93;47.03;58.28;;
66460;Laerm;58055;52.456;4.738;2023-09-12T00:40:22;51.68;46.77;57.70;;
66460;Laerm;58055;52.456;4.738;2023-09-12T00:40:33;50.22;46.63;54.71;;
66460;Laerm;58055;52.456;4.738;2023-09-12T00:40:43;50.95;47.15;56.66;;
66460;Laerm;58055;52.456;4.738;2023-09-12T00:40:53;49.50;47.35;58.71;;
66460;Laerm;58055;52.456;4.738;2023-09-12T00:41:04;49.21;46.57;54.30;;
66460;Laerm;58055;52.456;4.738;2023-09-12T00:41:14;48.43;46.73;53.59;;
66460;Laerm;58055;52.456;4.738;2023-09-12T00:41:24;49.55;47.24;54.66;;
66460;Laerm;58055;52.456;4.738;2023-09-12T00:41:34;48.90;46.89;52.59;;
66460;Laerm;58055;52.456;4.738;2023-09-12T00:41:45;49.44;46.97;54.48;;
66460;Laerm;58055;52.456;4.738;2023-09-12T00:41:55;48.95;47.36;52.82;;
66460;Laerm;58055;52.456;4.738;2023-09-12T00:42:05;48.84;46.73;51.29;;
66460;Laerm;58055;52.456;4.738;2023-09-12T00:42:17;48.97;46.62;53.39;;
66460;Laerm;58055;52.456;4.738;2023-09-12T00:42:27;49.72;47.42;54.70;;
66460;Laerm;58055;52.456;4.738;2023-09-12T00:42:38;52.72;47.30;55.30;;
66460;Laerm;58055;52.456;4.738;2023-09-12T00:42:48;52.64;49.45;55.40;;
66460;Laerm;58055;52.456;4.738;2023-09-12T00:42:58;50.93;47.82;53.25;;
66460;Laerm;58055;52.456;4.738;2023-09-12T00:43:09;50.51;48.41;52.65;;
66460;Laerm;58055;52.456;4.738;2023-09-12T00:43:20;51.58;48.89;53.73;;
66460;Laerm;58055;52.456;4.738;2023-09-12T00:43:30;52.28;47.72;54.55;;
66460;Laerm;58055;52.456;4.738;2023-09-12T00:43:40;52.58;47.76;59.74;;
66460;Laerm;58055;52.456;4.738;2023-09-12T00:43:51;49.86;47.58;56.01;;
66460;Laerm;58055;52.456;4.738;2023-09-12T00:44:01;51.82;48.17;60.20;;
66460;Laerm;58055;52.456;4.738;2023-09-12T00:44:11;56.13;46.86;64.49;;
66460;Laerm;58055;52.456;4.738;2023-09-12T00:44:22;49.56;47.20;58.07;;
66460;Laerm;58055;52.456;4.738;2023-09-12T00:44:32;53.98;47.94;61.31;;
66460;Laerm;58055;52.456;4.738;2023-09-12T00:44:42;54.13;48.00;61.91;;
66460;Laerm;58055;52.456;4.738;2023-09-12T00:44:53;51.00;46.91;59.14;;
66460;Laerm;58055;52.456;4.738;2023-09-12T00:45:03;51.60;47.06;59.99;;
66460;Laerm;58055;52.456;4.738;2023-09-12T00:45:13;53.07;47.41;58.73;;
66460;Laerm;58055;52.456;4.738;2023-09-12T00:45:23;53.09;47.77;58.11;;
66460;Laerm;58055;52.456;4.738;2023-09-12T00:45:34;52.75;47.88;57.38;;
66460;Laerm;58055;52.456;4.738;2023-09-12T00:45:44;51.23;47.33;58.39;;
66460;Laerm;58055;52.456;4.738;2023-09-12T00:45:54;48.72;46.69;60.48;;
66460;Laerm;58055;52.456;4.738;2023-09-12T00:46:05;53.63;47.05;65.53;;
66460;Laerm;58055;52.456;4.738;2023-09-12T00:46:18;51.72;46.87;63.14;;
66460;Laerm;58055;52.456;4.738;2023-09-12T00:46:28;61.78;47.09;66.87;;
66460;Laerm;58055;52.456;4.738;2023-09-12T00:46:39;54.04;46.80;66.26;;
66460;Laerm;58055;52.456;4.738;2023-09-12T00:46:49;60.39;47.00;64.68;;
66460;Laerm;58055;52.456;4.738;2023-09-12T00:47:01;57.04;46.73;63.56;;
66460;Laerm;58055;52.456;4.738;2023-09-12T00:47:12;50.17;47.05;55.60;;
66460;Laerm;58055;52.456;4.738;2023-09-12T00:47:23;51.55;46.56;56.78;;
66460;Laerm;58055;52.456;4.738;2023-09-12T00:47:34;51.85;47.81;59.08;;
66460;Laerm;58055;52.456;4.738;2023-09-12T00:47:46;53.26;47.87;58.38;;
66460;Laerm;58055;52.456;4.738;2023-09-12T00:47:57;50.95;48.09;56.45;;
66460;Laerm;58055;52.456;4.738;2023-09-12T00:48:08;51.37;48.20;57.30;;
66460;Laerm;58055;52.456;4.738;2023-09-12T00:48:19;51.58;48.27;55.57;;
66460;Laerm;58055;52.456;4.738;2023-09-12T00:48:30;61.60;47.43;67.16;;
66460;Laerm;58055;52.456;4.738;2023-09-12T00:48:40;57.98;48.16;62.40;;
66460;Laerm;58055;52.456;4.738;2023-09-12T00:48:51;58.39;51.02;62.08;;
66460;Laerm;58055;52.456;4.738;2023-09-12T00:49:01;59.64;47.18;64.65;;
66460;Laerm;58055;52.456;4.738;2023-09-12T00:49:13;57.91;47.82;60.82;;
66460;Laerm;58055;52.456;4.738;2023-09-12T00:49:24;58.88;48.42;60.67;;
66460;Laerm;58055;52.456;4.738;2023-09-12T00:49:34;59.37;47.90;62.00;;
66460;Laerm;58055;52.456;4.738;2023-09-12T00:49:45;58.65;49.64;61.45;;
66460;Laerm;58055;52.456;4.738;2023-09-12T00:49:56;57.90;54.14;59.84;;
66460;Laerm;58055;52.456;4.738;2023-09-12T00:50:08;58.61;53.55;60.73;;
66460;Laerm;58055;52.456;4.738;2023-09-12T00:50:19;58.43;49.69;60.32;;
66460;Laerm;58055;52.456;4.738;2023-09-12T00:50:31;54.21;49.32;59.04;;
66460;Laerm;58055;52.456;4.738;2023-09-12T00:50:41;54.82;49.37;60.57;;
66460;Laerm;58055;52.456;4.738;2023-09-12T00:50:52;57.36;51.24;60.92;;
66460;Laerm;58055;52.456;4.738;2023-09-12T00:51:03;59.52;50.41;62.16;;
66460;Laerm;58055;52.456;4.738;2023-09-12T00:51:14;59.72;48.73;62.20;;
66460;Laerm;58055;52.456;4.738;2023-09-12T00:51:25;59.78;49.89;62.39;;
66460;Laerm;58055;52.456;4.738;2023-09-12T00:51:36;59.23;48.04;62.16;;
66460;Laerm;58055;52.456;4.738;2023-09-12T00:51:47;57.37;47.17;62.18;;
66460;Laerm;58055;52.456;4.738;2023-09-12T00:51:59;57.41;46.87;60.12;;
66460;Laerm;58055;52.456;4.738;2023-09-12T00:52:12;57.10;47.02;60.91;;
66460;Laerm;58055;52.456;4.738;2023-09-12T00:52:26;58.54;49.48;61.24;;
66460;Laerm;58055;52.456;4.738;2023-09-12T00:52:37;59.33;51.10;61.79;;
66460;Laerm;58055;52.456;4.738;2023-09-12T00:52:48;58.42;50.62;60.66;;
66460;Laerm;58055;52.456;4.738;2023-09-12T00:52:59;58.54;48.97;61.07;;
66460;Laerm;58055;52.456;4.738;2023-09-12T00:53:09;59.57;56.20;61.61;;
66460;Laerm;58055;52.456;4.738;2023-09-12T00:53:20;58.68;49.10;61.72;;
66460;Laerm;58055;52.456;4.738;2023-09-12T00:53:31;52.17;48.68;56.14;;
66460;Laerm;58055;52.456;4.738;2023-09-12T00:53:41;56.26;48.37;61.66;;
66460;Laerm;58055;52.456;4.738;2023-09-12T00:53:52;58.00;46.12;60.66;;
66460;Laerm;58055;52.456;4.738;2023-09-12T00:54:04;58.82;46.98;60.87;;
66460;Laerm;58055;52.456;4.738;2023-09-12T00:54:14;58.80;47.36;60.69;;
66460;Laerm;58055;52.456;4.738;2023-09-12T00:54:25;57.89;47.47;60.33;;
66460;Laerm;58055;52.456;4.738;2023-09-12T00:54:35;51.80;48.08;60.10;;
66460;Laerm;58055;52.456;4.738;2023-09-12T00:54:45;59.52;47.59;64.23;;
66460;Laerm;58055;52.456;4.738;2023-09-12T00:54:56;51.39;48.69;55.53;;
66460;Laerm;58055;52.456;4.738;2023-09-12T00:55:06;52.14;48.21;56.35;;
66460;Laerm;58055;52.456;4.738;2023-09-12T00:55:16;54.63;49.79;59.92;;
66460;Laerm;58055;52.456;4.738;2023-09-12T00:55:28;55.96;48.92;60.49;;
66460;Laerm;58055;52.456;4.738;2023-09-12T00:55:39;56.97;51.61;61.51;;
66460;Laerm;58055;52.456;4.738;2023-09-12T00:55:53;54.90;48.74;62.28;;
66460;Laerm;58055;52.456;4.738;2023-09-12T00:56:06;51.93;48.69;56.91;;
66460;Laerm;58055;52.456;4.738;2023-09-12T00:56:16;54.56;50.98;58.41;;
66460;Laerm;58055;52.456;4.738;2023-09-12T00:56:27;56.29;49.07;60.01;;
66460;Laerm;58055;52.456;4.738;2023-09-12T00:56:37;48.58;46.64;51.38;;
66460;Laerm;58055;52.456;4.738;2023-09-12T00:56:48;48.02;46.21;52.43;;
66460;Laerm;58055;52.456;4.738;2023-09-12T00:56:58;51.13;46.58;60.79;;
66460;Laerm;58055;52.456;4.738;2023-09-12T00:57:08;50.95;46.41;59.64;;
66460;Laerm;58055;52.456;4.738;2023-09-12T00:57:19;54.05;46.73;61.93;;
66460;Laerm;58055;52.456;4.738;2023-09-12T00:57:31;50.08;46.40;59.85;;
66460;Laerm;58055;52.456;4.738;2023-09-12T00:57:42;48.27;46.43;53.70;;
66460;Laerm;58055;52.456;4.738;2023-09-12T00:57:53;48.48;47.06;51.43;;
66460;Laerm;58055;52.456;4.738;2023-09-12T00:58:03;49.71;46.92;55.56;;
66460;Laerm;58055;52.456;4.738;2023-09-12T00:58:14;49.10;47.05;53.96;;
66460;Laerm;58055;52.456;4.738;2023-09-12T00:58:24;49.43;46.34;56.86;;
66460;Laerm;58055;52.456;4.738;2023-09-12T00:58:35;51.06;47.88;56.00;;
66460;Laerm;58055;52.456;4.738;2023-09-12T00:58:45;51.78;47.37;58.97;;
66460;Laerm;58055;52.456;4.738;2023-09-12T00:58:56;49.65;47.44;54.87;;
66460;Laerm;58055;52.456;4.738;2023-09-12T00:59:07;49.55;47.09;54.15;;
66460;Laerm;58055;52.456;4.738;2023-09-12T00:59:18;49.99;47.23;54.07;;
66460;Laerm;58055;52.456;4.738;2023-09-12T00:59:29;51.09;47.16;54.89;;
66460;Laerm;58055;52.456;4.738;2023-09-12T00:59:39;50.84;48.67;53.48;;